Tiempo atmosférico en la estación meteorológica de Porreres, Illes Balears (120 m.)



Fecha
DESCASC
Temp. máxima en grados centígrados (hora)
DESCASC
Temp. mínima en grados centígrados (hora)
DESCASC
Temp. media en grados centígrados
DESCASC
Racha de viento máxima en m/sg (hora)
DESCASC
Velocidad máxima media en intervalos de 10 minutos(hora)
DESCASC
Precipitaciones diarias en mm
DESCASC
Precipitaciones de 00:00 a 06:00 en mm
DESCASC
Precipitaciones de 06:00 a 12:00 en mm
DESCASC
Precipitaciones de 12:00 a 18:00 en mm
DESCASC
Precipitaciones de 18:00 a 24:00 en mm
DESCASC
28-02-2021 -- (--) -- (--) -- 6.67 (14:30) 3.61 (12:00) 0 0 0 0 0
27-02-2021 -- (--) -- (--) -- 6.39 (13:20) 3.33 (13:20) 0 0 0 0 0
26-02-2021 -- (--) -- (--) -- 6.11 (14:50) 3.06 (15:20) 0 0 0 0 0
25-02-2021 -- (--) -- (--) -- 5.28 (16:40) 3.06 (16:50) 0 0 0 0 0
24-02-2021 18.1 (13:10) 7.3 (00:00) 12.7 7.22 (11:20) 3.61 (11:10) 0 0 0 0 0
23-02-2021 17.9 (13:00) 7.2 (00:00) 12.5 5.83 (12:50) 3.61 (11:10) 0 0 0 0 0
22-02-2021 16.5 (00:00) 8.1 (00:00) 12.3 7.5 (07:10) 4.17 (07:00) 0.5 0 0.1 0.4 0
21-02-2021 18.5 (12:10) 10.2 (00:00) 14.3 8.89 (17:10) 4.72 (11:50) 0 0 0 0 0
20-02-2021 19.3 (13:30) 7.7 (00:00) 13.5 5.28 (14:10) 3.06 (14:20) 0 0 0 0 0
19-02-2021 19.7 (14:10) 5.8 (00:00) 12.8 4.72 (15:00) 2.78 (15:20) 0 0 0 0 0
18-02-2021 19.7 (14:00) 7.5 (00:00) 13.6 6.39 (14:20) 3.61 (14:20) 0 0 0 0 0
17-02-2021 18.3 (13:50) 4.4 (00:00) 11.3 4.72 (13:30) 2.5 (13:50) 0 0 0 0 0
16-02-2021 15.8 (13:20) 3.3 (00:00) 9.6 6.39 (14:10) 3.33 (14:50) 0 0 0 0 0
15-02-2021 12.3 (14:20) 4.7 (00:00) 8.5 4.72 (16:20) 3.06 (15:40) 0 0 0 0 0
14-02-2021 11.8 (10:10) 7 (00:00) 9.4 6.94 (13:40) 3.61 (13:40) 0 0 0 0 0
13-02-2021 17.3 (13:00) 6.9 (00:00) 12.1 5.83 (15:40) 3.61 (15:10) 0.5 0.4 0.1 0 0
12-02-2021 17 (13:10) 8.4 (00:00) 12.7 9.17 (17:00) 5.28 (16:50) 0.4 0 0 0 0.4
11-02-2021 19.1 (15:40) 4.8 (00:00) 12 8.61 (13:40) 5.56 (13:40) 0.1 0 0 0 0.1
10-02-2021 16.9 (15:20) 8.2 (00:00) 12.5 16.67 (11:40) 9.72 (11:40) 0.1 0.1 0 0 0
09-02-2021 16.2 (12:50) 10.7 (00:00) 13.5 14.72 (12:50) 8.33 (12:50) 1.2 0 0 0 1.2
08-02-2021 15.7 (11:10) 5.6 (00:00) 10.6 17.22 (17:10) 10.83 (16:50) 2 0 0 2 0
07-02-2021 14.8 (16:10) 5.4 (00:00) 10.1 8.06 (11:10) 4.44 (08:20) 0 0 0 0 0
06-02-2021 21.4 (02:10) 12 (00:00) 16.7 12.5 (02:00) 5.83 (14:10) 0 0 0 0 0
05-02-2021 23.6 (14:10) 8.5 (00:00) 16.1 7.5 (13:50) 3.89 (12:30) 0 0 0 0 0
04-02-2021 20.3 (14:50) 9.3 (00:00) 14.8 4.17 (17:00) 2.5 (17:20) 0 0 0 0 0
03-02-2021 -- (--) -- (--) -- -- (--) -- (--) 0 0 0 0 0
02-02-2021 21.1 (16:00) 8.9 (00:00) 15 7.5 (00:30) 4.17 (00:20) 0 0 0 0 0
01-02-2021 19.1 (14:30) 13.5 (00:00) 16.3 15 (13:40) 8.33 (10:20) 0 0 0 0 0
31-01-2021 17.7 (13:30) 11.1 (00:00) 14.4 15 (12:50) 7.78 (10:20) 0 0 0 0 0

Gráficas

Temp. máximas Temp. mínimas Temp. medias Precipitaciones Rachas de viento máximas Velocidades máximas media en intervalos de 10 minutos

Datos horarios

Fecha y hora oficial Temperatura (ºC) Velocidad del viento (km/h) Dirección del viento Racha (km/h) Dirección de racha Precipitación (mm) Presión (hPa) Tendencia (hPa) Humedad (%)
2021-03-01 23:00:00 13.3 8 Este 29 Este 0 -- -- 90
2021-03-01 22:00:00 13.4 7 Este 20 Este 0 -- -- 89
2021-03-01 21:00:00 13.3 6 Este 21 Nordeste 0 -- -- 87
2021-03-01 20:00:00 13.3 8 Este 22 Nordeste 0 -- -- 86
2021-03-01 19:00:00 13.4 8 Este 25 Nordeste 0 -- -- 86
2021-03-01 18:00:00 13.6 8 Este 26 Este 0 -- -- 80
2021-03-01 17:00:00 13.7 11 Este 25 Nordeste 0 -- -- 81
2021-03-01 16:00:00 14.8 13 Este 25 Este 0 -- -- 77
2021-03-01 15:00:00 14.6 9 Este 23 Este 0 -- -- 81
2021-03-01 14:00:00 14.7 10 Este 26 Este 0 -- -- 76
2021-03-01 13:00:00 14.2 12 Este 28 Este 0 -- -- 72
2021-03-01 12:00:00 13.6 13 Este 30 Este 0 -- -- 70
2021-03-01 11:00:00 14.5 13 Este 26 Sudeste 0 -- -- 71
2021-03-01 10:00:00 13.6 8 Este 22 Este 0 -- -- 81
2021-03-01 09:00:00 12.9 3 Nordeste 15 Nordeste 0 -- -- 82
2021-03-01 08:00:00 12.3 5 Este 18 Este 0 -- -- 84
2021-03-01 07:00:00 12.3 4 Este 13 Nordeste 0 -- -- 81
2021-03-01 06:00:00 12.4 2 Nordeste 12 Nordeste 0 -- -- 80
2021-03-01 05:00:00 12.4 3 Nordeste 10 Nordeste 0 -- -- 78
2021-03-01 04:00:00 12.4 0 Calma 9 Nordeste 0 -- -- 77
2021-03-01 03:00:00 12.3 3 Este 15 Este 0 -- -- 76
2021-03-01 02:00:00 12.5 4 Este 17 Este 0 -- -- 76
2021-03-01 01:00:00 12.8 8 Este 19 Este 0 -- -- 75
2021-03-01 00:00:00 12.6 5 Este 17 Este 0 -- -- 77
2021-02-28 23:00:00 12.3 5 Este 19 Este 0 -- -- 77
2021-02-28 22:00:00 12.7 3 Este 13 Nordeste 0 -- -- 83
2021-02-28 21:00:00 12.7 2 Nordeste 12 Nordeste 0 -- -- 78
2021-02-28 20:00:00 12.3 2 Este 13 Este 0 -- -- 75
2021-02-28 19:00:00 12.8 8 Este 21 Este 0 -- -- 78
2021-02-28 18:00:00 13.6 7 Este 20 Este 0 -- -- 70
2021-02-28 17:00:00 -- 11 Este 22 Este 0 -- -- 68
2021-02-28 16:00:00 13.5 11 Este 22 Este 0 -- -- 67
2021-02-28 15:00:00 -- 8 Este 24 Este 0 -- -- 66
2021-02-28 14:00:00 -- 9 Este 19 Nordeste 0 -- -- 60
2021-02-28 13:00:00 15.2 7 Este 20 Este 0 -- -- 66
2021-02-28 12:00:00 16.3 13 Sudeste 23 Este 0 -- -- 60
2021-02-28 11:00:00 14.6 7 Este 19 Este 0 -- -- 70
2021-02-28 10:00:00 13.3 3 Este 13 Sudeste 0 -- -- 75
2021-02-28 09:00:00 11.7 3 Nordeste 10 Norte 0 -- -- 90
2021-02-28 08:00:00 8.2 8 Norte 10 Norte 0 -- -- 99
2021-02-28 07:00:00 6 5 Norte 7 Norte 0 -- -- 99
2021-02-28 06:00:00 6 2 Noroeste 4 Noroeste 0 -- -- 98
2021-02-28 05:00:00 6 4 Norte 7 Norte 0 -- -- 99
2021-02-28 04:00:00 7 4 Norte 6 Norte 0 -- -- 98
2021-02-28 03:00:00 6.9 4 Norte 6 Noroeste 0 -- -- 96
2021-02-28 02:00:00 6.9 4 Norte 7 Norte 0 -- -- 94
2021-02-28 01:00:00 7.7 5 Norte 7 Norte 0 -- -- 92
2021-02-28 00:00:00 7.9 4 Norte 7 Norte 0 -- -- 91
2021-02-27 23:00:00 8.9 4 Norte 7 Norte 0 -- -- 89
2021-02-27 22:00:00 8.8 4 Norte 7 Norte 0 -- -- 88
2021-02-27 21:00:00 9.5 4 Norte 6 Norte 0 -- -- 85
2021-02-27 20:00:00 10.6 0 Calma 6 Norte 0 -- -- 80
2021-02-27 19:00:00 12.4 0 Calma 11 Este 0 -- -- 74
2021-02-27 18:00:00 13.6 5 Este 13 Norte 0 -- -- 69
2021-02-27 17:00:00 -- 5 Nordeste 14 Nordeste 0 -- -- 60
2021-02-27 16:00:00 14.3 5 Este 18 Norte 0 -- -- 64
2021-02-27 15:00:00 15 4 Nordeste -- -- -- -- -- 65
2021-02-27 14:00:00 17.6 4 Nordeste 23 Norte 0 -- -- 62
2021-02-27 13:00:00 17.9 3 Nordeste 17 Sudeste 0 -- -- 65
2021-02-27 12:00:00 16.9 4 Este 21 Norte 0 -- -- 66
2021-02-27 11:00:00 -- 9 Norte 17 Norte 0 -- -- 73
2021-02-27 10:00:00 13.5 6 Norte 13 Norte 0 -- -- 83
2021-02-27 09:00:00 9.6 0 Calma 4 Norte 0 -- -- 97
2021-02-27 08:00:00 5.9 0 Calma 4 Noroeste 0 -- -- 99
2021-02-27 07:00:00 -- 0 Calma 5 Noroeste 0 -- -- 99
2021-02-27 06:00:00 -- 0 Calma 6 Noroeste 0 -- -- 99
2021-02-27 05:00:00 -- 3 Norte 8 Noroeste 0 -- -- 99
2021-02-27 04:00:00 -- 0 Calma 6 Noroeste 0 -- -- 99
2021-02-27 03:00:00 -- 0 Calma 5 Noroeste 0 -- -- 97
2021-02-27 02:00:00 -- 0 Calma 9 Noroeste 0 -- -- 96
2021-02-27 01:00:00 -- 3 Norte 8 Noroeste 0 -- -- 98
2021-02-27 00:00:00 -- 4 Norte 6 Norte 0 -- -- 96
2021-02-26 23:00:00 -- 0 Calma 3 Norte 0 -- -- 93
2021-02-26 22:00:00 -- 0 Calma 6 Noroeste 0 -- -- 91
2021-02-26 21:00:00 -- 2 Norte 8 Norte 0 -- -- 91
2021-02-26 20:00:00 -- 2 Norte 10 Noroeste 0 -- -- 89
2021-02-26 19:00:00 -- 4 Noroeste 11 Norte 0 -- -- 83
2021-02-26 18:00:00 -- 3 Nordeste 14 Norte 0 -- -- 72
2021-02-26 17:00:00 -- 2 Nordeste 15 Norte 0 -- -- 63
2021-02-26 16:00:00 -- 9 Norte 19 Norte 0 -- -- 62
2021-02-26 15:00:00 15.7 5 Nordeste 22 Norte 0 -- -- 59
2021-02-26 14:00:00 16.9 6 Este 14 Sudeste 0 -- -- 59
2021-02-26 13:00:00 17.4 3 Norte 15 Este 0 -- -- 58
2021-02-26 12:00:00 16.3 4 Nordeste 17 Norte 0 -- -- 63
2021-02-26 11:00:00 15.1 3 Este 13 Norte 0 -- -- 69
2021-02-26 10:00:00 13.6 3 Nordeste 13 Nordeste 0 -- -- 77
2021-02-26 09:00:00 10.9 4 Norte 8 Norte 0 -- -- 93
2021-02-26 08:00:00 8.8 4 Norte 8 Norte 0 -- -- 97
2021-02-26 07:00:00 8.7 3 Norte 7 Norte 0 -- -- 97
2021-02-26 06:00:00 8.1 4 Norte 9 Noroeste 0 -- -- 98
2021-02-26 05:00:00 7.5 6 Norte 13 Noroeste 0 -- -- 99
2021-02-26 04:00:00 7.4 8 Noroeste 12 Noroeste 0 -- -- 98
2021-02-26 03:00:00 6 0 Calma 4 Norte 0 -- -- 95
2021-02-26 02:00:00 6.9 2 Norte 6 Noroeste 0 -- -- 96
2021-02-26 01:00:00 6 0 Calma 5 Noroeste 0 -- -- 94
2021-02-26 00:00:00 6 0 Calma 2 Oeste 0 -- -- 92
2021-02-25 23:00:00 7.1 0 Calma 4 Oeste 0 -- -- 92
2021-02-25 22:00:00 7.9 0 Calma 4 Oeste 0 -- -- 90
2021-02-25 21:00:00 8.7 0 Calma 3 Noroeste 0 -- -- 84
2021-02-25 20:00:00 10.8 0 Calma 7 Este 0 -- -- 82
2021-02-25 19:00:00 12 4 Este 13 Este 0 -- -- 80
2021-02-25 18:00:00 14.3 8 Este 17 Sudeste 0 -- -- 72
2021-02-25 17:00:00 15.9 10 Sudeste 19 Este 0 -- -- 66
2021-02-25 16:00:00 17.4 8 Este 17 Este 0 -- -- 62
2021-02-25 15:00:00 17.9 3 Sudeste 12 Sudeste 0 -- -- 54
2021-02-25 14:00:00 18.2 6 Sudeste 16 Sudeste 0 -- -- 56
2021-02-25 13:00:00 17.6 5 Sudeste 13 Norte 0 -- -- 59
2021-02-25 12:00:00 16.7 5 Sudeste 12 Sudeste 0 -- -- 63
2021-02-25 11:00:00 15.2 4 Sudeste 11 Este 0 -- -- 71
2021-02-25 10:00:00 14.7 2 Sudeste 7 Sudeste 0 -- -- 82
2021-02-25 09:00:00 10.4 0 Calma 4 Norte 0 -- -- 99
2021-02-25 08:00:00 7 3 Noroeste 8 Norte 0 -- -- 99
2021-02-25 07:00:00 6.2 3 Norte 7 Norte 0 -- -- 99
2021-02-25 06:00:00 6.4 4 Norte 8 Noroeste 0 -- -- 99
2021-02-25 05:00:00 6 2 Noroeste 6 Noroeste 0 -- -- 99
2021-02-25 04:00:00 7.5 2 Noroeste 7 Noroeste 0 -- -- 99
2021-02-25 03:00:00 7.6 3 Norte 7 Norte 0 -- -- 99
2021-02-25 02:00:00 8.2 5 Norte 12 Noroeste 0 -- -- 99
2021-02-25 01:00:00 8.3 4 Noroeste 7 Noroeste 0 -- -- 99
2021-02-25 00:00:00 7.4 0 Calma 4 Oeste 0 -- -- 96
2021-02-24 23:00:00 7.9 2 Oeste 4 Oeste 0 -- -- 96
2021-02-24 22:00:00 8.2 0 Calma 3 Oeste 0 -- -- 91
2021-02-24 21:00:00 8.7 0 Calma 2 Oeste 0 -- -- 92
2021-02-24 20:00:00 10.1 0 Calma 0 Calma 0 -- -- 89
2021-02-24 19:00:00 12.5 0 Calma 13 Sudeste 0 -- -- 84
2021-02-24 18:00:00 13.5 6 Sudeste 14 Este 0 -- -- 81
2021-02-24 17:00:00 14.7 10 Sudeste 17 Este 0 -- -- 72
2021-02-24 16:00:00 15.6 9 Este 18 Este 0 -- -- 67
2021-02-24 15:00:00 15.9 10 Este 22 Este 0 -- -- 67
2021-02-24 14:00:00 17.6 12 Sudeste 19 Sudeste 0 -- -- 59
2021-02-24 13:00:00 17.5 10 Sudeste 20 Este 0 -- -- 60
2021-02-24 12:00:00 16.5 9 Sudeste 26 Sudeste 0 -- -- 58
2021-02-24 11:00:00 16.8 9 Sudeste 19 Este 0 -- -- 60
2021-02-24 10:00:00 15.2 3 Este 9 Sudeste 0 -- -- 82
2021-02-24 09:00:00 12.1 5 Norte 8 Norte 0 -- -- 99
2021-02-24 08:00:00 9.8 3 Norte 7 Norte 0 -- -- 99
2021-02-24 07:00:00 9 5 Norte 6 Norte 0 -- -- 99
2021-02-24 06:00:00 9.7 4 Norte 6 Norte 0 -- -- 99
2021-02-24 05:00:00 10.3 4 Norte 7 Norte 0 -- -- 99
2021-02-24 04:00:00 10.4 0 Calma 6 Norte 0 -- -- 99
2021-02-24 03:00:00 11.6 3 Norte 6 Norte 0 -- -- 98
2021-02-24 02:00:00 12.8 2 Este 7 Este 0 -- -- 96
2021-02-24 01:00:00 13.5 2 Sudeste 9 Este 0 -- -- 94
2021-02-24 00:00:00 14 2 Nordeste 10 Este 0 -- -- 93
2021-02-23 23:00:00 14.2 2 Este 13 Nordeste 0 -- -- 94
2021-02-23 22:00:00 14.4 2 Nordeste 10 Nordeste 0 -- -- 90
2021-02-23 21:00:00 14.6 3 Nordeste 15 Este 0 -- -- 88
2021-02-23 20:00:00 14.7 4 Este 15 Este 0 -- -- 88
2021-02-23 19:00:00 14.9 4 Nordeste 14 Nordeste 0 -- -- 86
2021-02-23 18:00:00 15.8 4 Este 16 Este 0 -- -- 83
2021-02-23 17:00:00 16.8 6 Este 17 Nordeste 0 -- -- 79
2021-02-23 16:00:00 17.2 7 Este 19 Sudeste 0 -- -- 78
2021-02-23 15:00:00 17 4 Este 19 Norte 0 -- -- 80
2021-02-23 14:00:00 17.3 9 Norte 20 Norte 0 -- -- 82
2021-02-23 13:00:00 17.6 8 Norte 21 Norte 0 -- -- 79
2021-02-23 12:00:00 15.1 10 Norte 19 Norte 0 -- -- 89
2021-02-23 11:00:00 14.4 12 Norte 20 Norte 0 -- -- 94
2021-02-23 10:00:00 12.7 8 Norte 12 Noroeste 0 -- -- 98
2021-02-23 09:00:00 11.2 8 Noroeste 13 Noroeste 0 -- -- 99
2021-02-23 08:00:00 9.9 7 Norte 11 Noroeste 0 -- -- 99
2021-02-23 07:00:00 9.8 6 Norte 10 Noroeste 0 -- -- 99
2021-02-23 06:00:00 9.8 4 Noroeste 10 Noroeste 0 -- -- 99
2021-02-23 05:00:00 9.4 5 Noroeste 9 Noroeste 0 -- -- 98
2021-02-23 04:00:00 9.5 2 Norte 8 Noroeste 0 -- -- 99
2021-02-23 03:00:00 9.6 0 Calma 5 Noroeste 0 -- -- 99
2021-02-23 02:00:00 8 2 Noroeste 5 Noroeste 0 -- -- 99
2021-02-23 01:00:00 7.4 2 Oeste 3 Noroeste 0 -- -- 99
2021-02-23 00:00:00 8.2 0 Calma 4 Noroeste 0 -- -- 99
2021-02-22 23:00:00 8.7 0 Calma 4 Norte 0 -- -- 97
2021-02-22 22:00:00 10 0 Calma 6 Noroeste 0 -- -- 97
2021-02-22 21:00:00 11.2 4 Noroeste 8 Noroeste 0 -- -- 98
2021-02-22 20:00:00 12.3 0 Calma 7 Sudeste 0 -- -- 93
2021-02-22 19:00:00 13.5 5 Sur 13 Sur 0 -- -- 92
2021-02-22 18:00:00 14.5 9 Sur 15 Sur 0 -- -- 85
2021-02-22 17:00:00 14.8 6 Sur 19 Sudoeste 0 -- -- 82
2021-02-22 16:00:00 13.6 8 Sudeste 19 Sur 0.3 -- -- 88
2021-02-22 15:00:00 14.3 9 Sur 23 Sur 0.1 -- -- 91
2021-02-22 14:00:00 14.7 12 Sur 23 Sur 0 -- -- 86
2021-02-22 13:00:00 14.8 12 Sur 21 Sur 0 -- -- 83
2021-02-22 12:00:00 13.9 9 Sur 18 Sur 0 -- -- 88
2021-02-22 11:00:00 13.6 9 Sur 15 Sur 0 -- -- 89
2021-02-22 10:00:00 13.5 8 Sudoeste 13 Sudoeste 0.1 -- -- 89
2021-02-22 09:00:00 13.1 5 Sur 17 Sudoeste 0 -- -- 92
2021-02-22 08:00:00 13.6 7 Sur 27 Sudoeste 0 -- -- 94
2021-02-22 07:00:00 13.6 15 Sudoeste 26 Oeste 0 -- -- 91
2021-02-22 06:00:00 13.6 11 Sudoeste 21 Sudoeste 0 -- -- 89
2021-02-22 05:00:00 13.6 9 Sudoeste 21 Sudoeste 0 -- -- 92
2021-02-22 04:00:00 14.3 12 Sudoeste 22 Sudoeste 0 -- -- 94
2021-02-22 03:00:00 14.6 9 Sudoeste 22 Sudoeste 0 -- -- 93
2021-02-22 02:00:00 14.9 12 Sudoeste 22 Sudoeste 0 -- -- 93
2021-02-22 01:00:00 15.6 10 Sudoeste 26 Sudoeste 0 -- -- 91
2021-02-22 00:00:00 16.5 13 Sudoeste 25 Sur 0 -- -- 76
2021-02-21 23:00:00 17.1 12 Sur 21 Sur 0 -- -- 71
2021-02-21 22:00:00 17.8 9 Sur 23 Sudeste 0 -- -- 65
2021-02-21 21:00:00 17.1 8 Sudeste 19 Sur 0 -- -- 69
2021-02-21 20:00:00 16.4 5 Sudeste 24 Este 0 -- -- 74
2021-02-21 19:00:00 16.1 12 Sudeste 28 Este 0 -- -- 78
2021-02-21 18:00:00 16.2 15 Sudeste 32 Este 0 -- -- 78
2021-02-21 17:00:00 16.7 17 Sudeste 30 Este 0 -- -- 75
2021-02-21 16:00:00 17.9 14 Sudeste 25 Sudeste 0 -- -- 70
2021-02-21 15:00:00 17.5 13 Sudeste 26 Este 0 -- -- 73
2021-02-21 14:00:00 17.3 17 Sudeste 30 Este 0 -- -- 77
2021-02-21 13:00:00 17.4 16 Sudeste 27 Este 0 -- -- 74
2021-02-21 12:00:00 17.8 16 Sudeste 28 Sudeste 0 -- -- 76
2021-02-21 11:00:00 16.3 16 Sudeste 28 Sudeste 0 -- -- 83
2021-02-21 10:00:00 15.2 14 Este 28 Este 0 -- -- 90
2021-02-21 09:00:00 13.6 12 Este 24 Este 0 -- -- 96
2021-02-21 08:00:00 12.3 6 Este 15 Este 0 -- -- 99
2021-02-21 07:00:00 11.5 3 Este 7 Norte 0 -- -- 99
2021-02-21 06:00:00 11.6 0 Calma 14 Este 0 -- -- 99
2021-02-21 05:00:00 12.1 6 Este 14 Este 0 -- -- 99
2021-02-21 04:00:00 10.9 0 Calma 6 Norte 0 -- -- 99
2021-02-21 03:00:00 11.7 0 Calma 17 Sudeste 0 -- -- 99
2021-02-21 02:00:00 11.5 0 Calma 14 Nordeste 0 -- -- 99
2021-02-21 01:00:00 11.3 5 Este 11 Este 0 -- -- 99
2021-02-21 00:00:00 10.2 0 Calma 7 Norte 0 -- -- 99
2021-02-20 23:00:00 9.8 2 Norte 5 Norte 0 -- -- 97
2021-02-20 22:00:00 10.1 0 Calma 7 Norte 0 -- -- 95
2021-02-20 21:00:00 11.1 4 Norte 7 Norte 0 -- -- 94
2021-02-20 20:00:00 11.9 4 Norte 10 Este 0 -- -- 93
2021-02-20 19:00:00 12.4 6 Este 13 Sudeste 0 -- -- 92
2021-02-20 18:00:00 15 6 Este 16 Sudeste 0 -- -- 79
2021-02-20 17:00:00 17 10 Sudeste 18 Este 0 -- -- 62
2021-02-20 16:00:00 18.3 10 Este 17 Este 0 -- -- 53
2021-02-20 15:00:00 18.7 9 Sudeste 19 Este 0 -- -- 56
2021-02-20 14:00:00 19 9 Sudeste 18 Este 0 -- -- 57
2021-02-20 13:00:00 18.9 7 Sudeste 17 Sudeste 0 -- -- 55
2021-02-20 12:00:00 17.8 8 Sudeste 15 Este 0 -- -- 61
2021-02-20 11:00:00 15.8 6 Sudeste 14 Sudeste 0 -- -- 74
2021-02-20 10:00:00 13.5 5 Este 12 Este 0 -- -- 86
2021-02-20 09:00:00 10.4 2 Noroeste 4 Noroeste 0 -- -- 98
2021-02-20 08:00:00 7.8 3 Noroeste 6 Norte 0 -- -- 99
2021-02-20 07:00:00 8.4 0 Calma 4 Noroeste 0 -- -- 98
2021-02-20 06:00:00 9 0 Calma 5 Noroeste 0 -- -- 98
2021-02-20 05:00:00 8.8 0 Calma 4 Norte 0 -- -- 98
2021-02-20 04:00:00 11.1 0 Calma 6 Sudoeste 0 -- -- 95
2021-02-20 03:00:00 11.3 0 Calma 8 Sudoeste 0 -- -- 96
2021-02-20 02:00:00 10.3 0 Calma 6 Sudoeste 0 -- -- 98
2021-02-20 01:00:00 9 3 Norte 9 Norte 0 -- -- 99
2021-02-20 00:00:00 7.8 4 Noroeste 10 Noroeste 0 -- -- 99
2021-02-19 23:00:00 7.5 0 Calma 0 Calma 0 -- -- 92
2021-02-19 22:00:00 9.4 0 Calma 4 Oeste 0 -- -- 90
2021-02-19 21:00:00 10.2 0 Calma 5 Oeste 0 -- -- 92
2021-02-19 20:00:00 11.9 2 Oeste 8 Sudoeste 0 -- -- 90
2021-02-19 19:00:00 12.9 4 Sudoeste 13 Sudoeste 0 -- -- 89
2021-02-19 18:00:00 14.9 5 Sur 16 Sudoeste 0 -- -- 81
2021-02-19 17:00:00 16.2 7 Sur 16 Sur 0 -- -- 75
2021-02-19 16:00:00 17.9 9 Sur 17 Sudeste 0 -- -- 66
2021-02-19 15:00:00 19.2 8 Sur 17 Sudoeste 0 -- -- 59
2021-02-19 14:00:00 19 6 Sudeste 12 Sudeste 0 -- -- 58
2021-02-19 13:00:00 17.1 0 Calma 13 Sudeste 0 -- -- 69
2021-02-19 12:00:00 16 2 Sudeste 12 Sudeste 0 -- -- 78
2021-02-19 11:00:00 14.1 5 Sudeste 8 Sudeste 0 -- -- 86
2021-02-19 10:00:00 11.1 0 Calma 5 Este 0 -- -- 97
2021-02-19 09:00:00 9.2 2 Norte 5 Norte 0 -- -- 99
2021-02-19 08:00:00 6 0 Calma 9 Noroeste 0 -- -- 99
2021-02-19 07:00:00 6 3 Noroeste 8 Noroeste 0 -- -- 99
2021-02-19 06:00:00 6 2 Noroeste 9 Norte 0 -- -- 99
2021-02-19 05:00:00 6 0 Calma 7 Nordeste 0 -- -- 98
2021-02-19 04:00:00 8.4 0 Calma 8 Sudoeste 0 -- -- 97
2021-02-19 03:00:00 10.4 3 Sudoeste 7 Sudoeste 0 -- -- 99
2021-02-19 02:00:00 8.3 0 Calma 8 Norte 0 -- -- 99
2021-02-19 01:00:00 7.2 0 Calma 7 Noroeste 0 -- -- 97
2021-02-19 00:00:00 7.6 2 Norte 7 Norte 0 -- -- 97
2021-02-18 23:00:00 8.4 0 Calma 6 Noroeste 0 -- -- 96
2021-02-18 22:00:00 9 0 Calma 6 Norte 0 -- -- 95
2021-02-18 21:00:00 10.8 0 Calma 7 Noroeste 0 -- -- 91
2021-02-18 20:00:00 13.1 0 Calma 8 Sudeste 0 -- -- 89
2021-02-18 19:00:00 13.6 4 Sur 12 Sudeste 0 -- -- 88
2021-02-18 18:00:00 16.1 7 Sudeste 15 Sudeste 0 -- -- 77
2021-02-18 17:00:00 17.4 6 Sur 16 Sur 0 -- -- 66
2021-02-18 16:00:00 18.4 9 Sur 16 Sur 0 -- -- 63
2021-02-18 15:00:00 19.1 9 Sur 23 Sudeste 0 -- -- 57
2021-02-18 14:00:00 19.3 11 Sudeste 19 Sudeste 0 -- -- 57
2021-02-18 13:00:00 19.3 8 Sur 19 Sudeste 0 -- -- 51
2021-02-18 12:00:00 18.3 10 Sudeste 17 Sudeste 0 -- -- 57
2021-02-18 11:00:00 16.4 5 Sudeste 13 Este 0 -- -- 70
2021-02-18 10:00:00 14.6 6 Sudeste 11 Este 0 -- -- 82
2021-02-18 09:00:00 12.3 3 Norte 5 Norte 0 -- -- 92
2021-02-18 08:00:00 11.3 0 Calma 8 Este 0 -- -- 94
2021-02-18 07:00:00 11.3 4 Sudeste 10 Este 0 -- -- 95
2021-02-18 06:00:00 11.5 3 Sur 7 Sudoeste 0 -- -- 95
2021-02-18 05:00:00 11.7 0 Calma 8 Sudeste 0 -- -- 95
2021-02-18 04:00:00 11.8 4 Sudeste 13 Sur 0 -- -- 97
2021-02-18 03:00:00 11.9 3 Sur 14 Sur 0 -- -- 97
2021-02-18 02:00:00 11.9 5 Sur 14 Sudoeste 0 -- -- 98
2021-02-18 01:00:00 11.7 4 Sur 11 Sur 0 -- -- 99
2021-02-18 00:00:00 8.5 0 Calma 3 Norte 0 -- -- 94
2021-02-17 23:00:00 8.6 0 Calma 2 Noroeste 0 -- -- 95
2021-02-17 22:00:00 8.3 0 Calma 0 Calma 0 -- -- 90
2021-02-17 21:00:00 9.8 0 Calma 2 Norte 0 -- -- 91
2021-02-17 20:00:00 11.4 0 Calma 7 Sudoeste 0 -- -- 89
2021-02-17 19:00:00 12.7 3 Sudoeste 12 Sudoeste 0 -- -- 85
2021-02-17 18:00:00 14.6 6 Sudoeste 14 Sudoeste 0 -- -- 79
2021-02-17 17:00:00 16.3 6 Sur 13 Sudeste 0 -- -- 71
2021-02-17 16:00:00 17.4 6 Sur 15 Sudeste 0 -- -- 66
2021-02-17 15:00:00 18 6 Sur 17 Sur 0 -- -- 62
2021-02-17 14:00:00 17.9 8 Sur 17 Sudoeste 0 -- -- 62
2021-02-17 13:00:00 17.2 6 Sur 13 Sudeste 0 -- -- 62
2021-02-17 12:00:00 16.5 6 Sur 14 Sudoeste 0 -- -- 67
2021-02-17 11:00:00 14.8 5 Sudoeste 14 Sudoeste 0 -- -- 72
2021-02-17 10:00:00 13.1 4 Sur 8 Oeste 0 -- -- 80
2021-02-17 09:00:00 10.2 0 Calma 4 Oeste 0 -- -- 94
2021-02-17 08:00:00 5.6 0 Calma 3 Oeste 0 -- -- 99
2021-02-17 07:00:00 4.8 2 Norte 7 Norte 0 -- -- 99
2021-02-17 06:00:00 5.5 0 Calma 4 Noroeste 0 -- -- 97
2021-02-17 05:00:00 6 0 Calma 6 Norte 0 -- -- 95
2021-02-17 04:00:00 8.4 0 Calma 5 Norte 0 -- -- 96
2021-02-17 03:00:00 8.1 0 Calma 5 Norte 0 -- -- 96
2021-02-17 02:00:00 8.2 0 Calma 8 Oeste 0 -- -- 97
2021-02-17 01:00:00 10.2 6 Sudoeste 16 Sudoeste 0 -- -- 93
2021-02-17 00:00:00 8.3 5 Sudoeste 12 Sudoeste 0 -- -- 98
2021-02-16 23:00:00 6 3 Oeste 5 Noroeste 0 -- -- 96
2021-02-16 22:00:00 6 0 Calma -- -- 0 -- -- 88
2021-02-16 21:00:00 8 0 Calma 5 Sudoeste 0 -- -- 84
2021-02-16 20:00:00 10 3 Oeste 12 Sudoeste 0 -- -- 84
2021-02-16 19:00:00 10.8 7 Sudoeste 14 Sudoeste 0 -- -- 80
2021-02-16 18:00:00 12.9 9 Sudoeste 19 Sudoeste 0 -- -- 71
2021-02-16 17:00:00 14.5 9 Sudoeste 18 Sudoeste 0 -- -- 64
2021-02-16 16:00:00 15.1 10 Sudoeste 19 Sudoeste 0 -- -- 60
2021-02-16 15:00:00 14.8 10 Oeste 23 Oeste 0 -- -- 62
2021-02-16 14:00:00 14.8 10 Sudoeste 20 Oeste 0 -- -- 62
2021-02-16 13:00:00 15.2 10 Sur 22 Sudoeste 0 -- -- 58
2021-02-16 12:00:00 13.6 11 Sudoeste 19 Sudoeste 0 -- -- 61
2021-02-16 11:00:00 13.6 10 Sudoeste 19 Sudoeste 0 -- -- 64
2021-02-16 10:00:00 12.3 0 Calma 3 Este 0 -- -- 72
2021-02-16 09:00:00 8.4 0 Calma 3 Norte 0 -- -- 87
2021-02-16 08:00:00 4.3 3 Noroeste 6 Noroeste 0 -- -- 96
2021-02-16 07:00:00 4.4 3 Norte 9 Noroeste 0 -- -- 95
2021-02-16 06:00:00 4.4 5 Norte 9 Noroeste 0 -- -- 95
2021-02-16 05:00:00 4.4 5 Noroeste 9 Norte 0 -- -- 96
2021-02-16 04:00:00 4.2 0 Calma 9 Noroeste 0 -- -- 91
2021-02-16 03:00:00 5.4 5 Noroeste 7 Noroeste 0 -- -- 90
2021-02-16 02:00:00 5.6 0 Calma 6 Noroeste 0 -- -- 87
2021-02-16 01:00:00 6 0 Calma 6 Noroeste 0 -- -- 84
2021-02-16 00:00:00 8 0 Calma 5 Noroeste 0 -- -- 80
2021-02-15 23:00:00 9.1 0 Calma 2 Norte 0 -- -- 79
2021-02-15 22:00:00 9.4 0 Calma 2 Sur 0 -- -- 75
2021-02-15 21:00:00 9.8 0 Calma 7 Sudeste 0 -- -- 70
2021-02-15 20:00:00 9.8 4 Sudeste 7 Sudeste 0 -- -- 69
2021-02-15 19:00:00 10.1 4 Sudeste 10 Sudeste 0 -- -- 67
2021-02-15 18:00:00 10.4 8 Sudeste 14 Sudeste 0 -- -- 65
2021-02-15 17:00:00 10.8 9 Sudeste 17 Sudeste 0 -- -- 64
2021-02-15 16:00:00 11.1 8 Sudeste 17 Este 0 -- -- 63
2021-02-15 15:00:00 11.9 7 Sudeste 15 Sudeste 0 -- -- 60
2021-02-15 14:00:00 11.8 5 Sudeste 14 Sudeste 0 -- -- 59
2021-02-15 13:00:00 11.6 6 Sudeste 13 Sudeste 0 -- -- 61
2021-02-15 12:00:00 11.1 5 Sudeste 14 Sudeste 0 -- -- 64
2021-02-15 11:00:00 10.8 5 Sudeste 11 Sudeste 0 -- -- 68
2021-02-15 10:00:00 9.2 3 Noroeste 9 Noroeste 0 -- -- 74
2021-02-15 09:00:00 7.8 0 Calma 8 Noroeste 0 -- -- 81
2021-02-15 08:00:00 6 0 Calma 7 Norte 0 -- -- 84
2021-02-15 07:00:00 6 4 Norte 9 Noroeste 0 -- -- 86
2021-02-15 06:00:00 5.6 4 Noroeste 9 Noroeste 0 -- -- 85
2021-02-15 05:00:00 4.9 7 Norte 9 Noroeste 0 -- -- 85
2021-02-15 04:00:00 5.3 2 Noroeste 9 Noroeste 0 -- -- 85
2021-02-15 03:00:00 6 3 Norte 6 Norte 0 -- -- 81
2021-02-15 02:00:00 6 0 Calma 6 Norte 0 -- -- 81
2021-02-15 01:00:00 6 4 Norte 5 Norte 0 -- -- 83
2021-02-15 00:00:00 7.1 5 Norte 7 Norte 0 -- -- 79
2021-02-14 23:00:00 7.7 0 Calma 5 Nordeste 0 -- -- 76
2021-02-14 22:00:00 8 0 Calma 9 Este 0 -- -- 75
2021-02-14 21:00:00 7.8 0 Calma 6 Nordeste 0 -- -- 78
2021-02-14 20:00:00 8 4 Norte 7 Norte 0 -- -- 76
2021-02-14 19:00:00 8.3 0 Calma 14 Este 0 -- -- 73
2021-02-14 18:00:00 9.6 7 Este 20 Este 0 -- -- 66
2021-02-14 17:00:00 10.2 10 Este 21 Este 0 -- -- 65
2021-02-14 16:00:00 10.9 10 Este 22 Este 0 -- -- 64
2021-02-14 15:00:00 10.8 8 Este 24 Este 0 -- -- 67
2021-02-14 14:00:00 10.7 12 Este 25 Este 0 -- -- 72
2021-02-14 13:00:00 11.3 9 Este 22 Este 0 -- -- 67
2021-02-14 12:00:00 11.4 7 Este 23 Este 0 -- -- 71
2021-02-14 11:00:00 11.4 7 Este 18 Nordeste 0 -- -- 73
2021-02-14 10:00:00 11.7 5 Este 17 Este 0 -- -- 77
2021-02-14 09:00:00 10.7 4 Este 14 Norte 0 -- -- 83
2021-02-14 08:00:00 10.8 0 Calma 10 Nordeste 0 -- -- 87
2021-02-14 07:00:00 11 2 Nordeste 11 Nordeste 0 -- -- 89
2021-02-14 06:00:00 11.1 0 Calma 9 Este 0 -- -- 94
2021-02-14 05:00:00 11.1 0 Calma 9 Este 0 -- -- 94
2021-02-14 04:00:00 11.5 0 Calma 5 Noroeste 0 -- -- 94
2021-02-14 03:00:00 11.5 0 Calma 8 Norte 0 -- -- 94
2021-02-14 02:00:00 11.6 0 Calma 8 Nordeste 0 -- -- 95
2021-02-14 01:00:00 11.3 0 Calma 3 Norte 0 -- -- 92
2021-02-14 00:00:00 11.4 2 Noroeste 4 Noroeste 0 -- -- 91
2021-02-13 23:00:00 11.7 0 Calma 4 Norte 0 -- -- 91
2021-02-13 22:00:00 11.9 0 Calma 5 Sudeste 0 -- -- 88
2021-02-13 21:00:00 12.1 2 Sudeste 6 Sudeste 0 -- -- 87
2021-02-13 20:00:00 12.4 5 Sudeste 9 Sudeste 0 -- -- 86
2021-02-13 19:00:00 12.7 0 Calma 19 Sudoeste 0 -- -- 83
2021-02-13 18:00:00 13.6 11 Sudoeste 19 Sudoeste 0 -- -- 77
2021-02-13 17:00:00 14.9 6 Sur 17 Sur 0 -- -- 72
2021-02-13 16:00:00 16.7 8 Sur 21 Sudoeste 0 -- -- 66
2021-02-13 15:00:00 17.1 10 Sudoeste 21 Sudoeste 0 -- -- 69
2021-02-13 14:00:00 16.2 2 Noroeste 12 Norte 0 -- -- 67
2021-02-13 13:00:00 16.8 4 Norte 14 Norte 0 -- -- 63
2021-02-13 08:00:00 9.8 0 Calma 5 Sur 0 -- -- 99
2021-02-13 07:00:00 10 0 Calma 8 Nordeste 0 -- -- 99
2021-02-13 06:00:00 9.8 0 Calma 5 Norte 0 -- -- 99
2021-02-13 05:00:00 9 0 Calma 8 Oeste 0 -- -- 99
2021-02-13 04:00:00 9.2 3 Noroeste 6 Norte 0 -- -- 99
2021-02-13 03:00:00 10.1 0 Calma 8 Oeste 0 -- -- 97
2021-02-13 02:00:00 11.3 0 Calma 5 Oeste 0 -- -- 96
2021-02-13 01:00:00 11.7 3 Oeste 12 Noroeste 0.4 -- -- 97
2021-02-13 00:00:00 12.2 5 Norte 17 Noroeste 0.4 -- -- 96
2021-02-12 23:00:00 13 12 Noroeste 30 Noroeste 0 -- -- 88
2021-02-12 22:00:00 13.3 9 Noroeste 25 Noroeste 0 -- -- 85
2021-02-12 21:00:00 13.8 11 Noroeste 24 Noroeste 0 -- -- 70
2021-02-12 20:00:00 13.5 7 Noroeste 20 Oeste 0 -- -- 74
2021-02-12 19:00:00 13.6 7 Noroeste 23 Norte 0 -- -- 80
2021-02-12 18:00:00 15.3 10 Noroeste 26 Oeste 0 -- -- 73
2021-02-12 17:00:00 15.9 19 Oeste 33 Oeste 0 -- -- 85
2021-02-12 16:00:00 15.8 12 Oeste 27 Oeste 0 -- -- 84
2021-02-12 15:00:00 15.5 17 Oeste 29 Sudoeste 0 -- -- 88
2021-02-12 14:00:00 16 13 Oeste 24 Oeste 0 -- -- 86
2021-02-12 13:00:00 16.5 10 Sudoeste 24 Sudoeste 0 -- -- 87
2021-02-12 12:00:00 16 13 Oeste 26 Sudoeste 0 -- -- 89
2021-02-12 11:00:00 15.1 13 Sudoeste 25 Sudoeste 0 -- -- 93
2021-02-12 10:00:00 13.6 11 Sudoeste 20 Sudoeste 0 -- -- 99
2021-02-12 09:00:00 13.6 7 Sudoeste 16 Sudoeste 0 -- -- 99
2021-02-12 08:00:00 13.5 6 Sudoeste 18 Sudoeste 0 -- -- 99
2021-02-12 07:00:00 13.3 5 Oeste 14 Sudoeste 0 -- -- 99
2021-02-12 06:00:00 13.1 0 Calma 7 Sudeste 0 -- -- 99
2021-02-12 05:00:00 13 3 Sudoeste 12 Sudoeste 0 -- -- 99
2021-02-12 04:00:00 12.6 3 Sudeste 6 Sur 0 -- -- 99
2021-02-12 03:00:00 8.8 0 Calma 3 Este 0 -- -- 95
2021-02-12 02:00:00 9.1 0 Calma 11 Oeste 0 -- -- 94
2021-02-12 01:00:00 8.4 2 Oeste 9 Oeste 0 -- -- 91
2021-02-12 00:00:00 9.4 0 Calma 5 Nordeste 0 -- -- 89
2021-02-11 23:00:00 11 0 Calma 8 Oeste 0 -- -- 86
2021-02-11 22:00:00 12.6 3 Oeste 12 Oeste 0 -- -- 87
2021-02-11 21:00:00 12.5 2 Sudoeste 8 Sudoeste 0 -- -- 87
2021-02-11 20:00:00 12.8 3 Oeste 15 Sudoeste 0 -- -- 82
2021-02-11 19:00:00 13.5 6 Sudoeste 13 Sudoeste 0.1 -- -- 75
2021-02-11 18:00:00 15.2 7 Sudoeste 25 Oeste 0 -- -- 62
2021-02-11 17:00:00 17.3 15 Oeste 29 Oeste 0 -- -- 49
2021-02-11 16:00:00 18.4 15 Oeste 27 Oeste 0 -- -- 45
2021-02-11 15:00:00 18.6 17 Oeste 27 Oeste 0 -- -- 43
2021-02-11 14:00:00 18.5 16 Oeste 31 Oeste 0 -- -- 43
2021-02-11 13:00:00 18.2 17 Oeste 28 Oeste 0 -- -- 47
2021-02-11 12:00:00 17.2 14 Oeste 28 Oeste 0 -- -- 55
2021-02-11 11:00:00 16.2 9 Oeste 30 Oeste 0 -- -- 61
2021-02-11 10:00:00 14.7 9 Oeste 18 Oeste 0 -- -- 74
2021-02-11 09:00:00 11.6 5 Sudoeste 11 Sudoeste 0 -- -- 88
2021-02-11 08:00:00 7.7 0 Calma 12 Oeste 0 -- -- 94
2021-02-11 07:00:00 8.7 6 Oeste 9 Oeste 0 -- -- 95
2021-02-11 06:00:00 5.6 0 Calma 5 Sudoeste 0 -- -- 93
2021-02-11 05:00:00 5.2 0 Calma 6 Este 0 -- -- 92
2021-02-11 04:00:00 5.9 0 Calma 8 Norte 0 -- -- 90
2021-02-11 03:00:00 6 0 Calma 6 Norte 0 -- -- 86
2021-02-11 02:00:00 6 2 Nordeste 7 Norte 0 -- -- 82
2021-02-11 01:00:00 6 2 Sudeste 7 Sudoeste 0 -- -- 82
2021-02-11 00:00:00 9.2 0 Calma 12 Noroeste 0 -- -- 72
2021-02-10 23:00:00 8.4 0 Calma 14 Noroeste 0 -- -- 77
2021-02-10 22:00:00 10.7 6 Noroeste 11 Noroeste 0 -- -- 66
2021-02-10 21:00:00 10.8 8 Oeste 19 Norte 0 -- -- 65
2021-02-10 20:00:00 11.6 6 Norte 22 Noroeste 0 -- -- 63
2021-02-10 19:00:00 12.6 13 Noroeste 33 Noroeste 0 -- -- 58
2021-02-10 18:00:00 13.4 24 Noroeste 44 Noroeste 0 -- -- 54
2021-02-10 17:00:00 14.8 22 Noroeste 51 Noroeste 0 -- -- 50
2021-02-10 16:00:00 15.9 20 Noroeste 43 Oeste 0 -- -- 44
2021-02-10 15:00:00 16.5 23 Noroeste 48 Noroeste 0 -- -- 44
2021-02-10 14:00:00 16 20 Noroeste 48 Norte 0 -- -- 45
2021-02-10 13:00:00 16.3 21 Noroeste 53 Oeste 0 -- -- 46
2021-02-10 12:00:00 16.1 33 Oeste -- -- 0 -- -- 58
2021-02-10 11:00:00 15 31 Oeste 54 Oeste 0 -- -- 55
2021-02-10 10:00:00 14.8 22 Oeste 38 Oeste 0 -- -- 72
2021-02-10 09:00:00 14.5 21 Oeste 45 Noroeste 0 -- -- 72
2021-02-10 08:00:00 14.8 22 Oeste 54 Oeste 0 -- -- 55
2021-02-10 07:00:00 13 31 Oeste 51 Oeste 0 -- -- 62
2021-02-10 06:00:00 12 27 Oeste 44 Oeste 0.1 -- -- 69
2021-02-10 05:00:00 11.8 22 Oeste 35 Oeste 0 -- -- 82
2021-02-10 04:00:00 11.7 18 Oeste 39 Oeste 0 -- -- 97
2021-02-10 03:00:00 11.3 18 Oeste 32 Oeste 0 -- -- 94
2021-02-10 02:00:00 11.5 22 Oeste 42 Oeste 0 -- -- 96
2021-02-10 01:00:00 11.6 20 Oeste 39 Oeste 0 -- -- 96
2021-02-10 00:00:00 12 23 Oeste 40 Oeste 0 -- -- 95
2021-02-09 23:00:00 11.9 22 Oeste 41 Oeste 0 -- -- 94
2021-02-09 22:00:00 11.8 18 Oeste 36 Oeste 0.8 -- -- 96
2021-02-09 21:00:00 11.7 18 Sudoeste 35 Oeste 0.4 -- -- 95
2021-02-09 20:00:00 11.3 18 Sudoeste 35 Oeste 0 -- -- 88
2021-02-09 19:00:00 11.2 16 Oeste 33 Oeste 0 -- -- 89
2021-02-09 18:00:00 13.5 19 Sudoeste 38 Sudoeste 0 -- -- 88
2021-02-09 17:00:00 11.8 22 Sudoeste 38 Oeste 0 -- -- 80
2021-02-09 16:00:00 14.1 14 Sudoeste 34 Sudoeste 0 -- -- 69
2021-02-09 15:00:00 13.3 18 Sudoeste 32 Oeste 0 -- -- 65
2021-02-09 14:00:00 14.3 17 Sudoeste 46 Oeste 0 -- -- 62
2021-02-09 13:00:00 14.3 28 Oeste 53 Sudoeste 0 -- -- 57
2021-02-09 12:00:00 15.5 18 Oeste 48 Oeste 0 -- -- 55
2021-02-09 11:00:00 14.3 24 Oeste 40 Oeste 0 -- -- 68
2021-02-09 10:00:00 13.5 19 Oeste 34 Oeste 0 -- -- 70
2021-02-09 09:00:00 13 13 Oeste 28 Oeste 0 -- -- 67
2021-02-09 08:00:00 11.6 11 Oeste 28 Oeste 0 -- -- 77
2021-02-09 07:00:00 11.9 15 Oeste 28 Oeste 0 -- -- 75
2021-02-09 06:00:00 11.8 14 Oeste 31 Oeste 0 -- -- 80
2021-02-09 05:00:00 11.9 16 Oeste 30 Oeste 0 -- -- 79
2021-02-09 04:00:00 12.3 14 Oeste 37 Oeste 0 -- -- 74
2021-02-09 03:00:00 12.4 19 Oeste 40 Noroeste 0 -- -- 74
2021-02-09 02:00:00 12.7 22 Oeste 40 Oeste 0 -- -- 72
2021-02-09 01:00:00 12.4 10 Oeste 25 Oeste 0 -- -- 76
2021-02-09 00:00:00 12.5 14 Oeste 37 Oeste 0 -- -- 75
2021-02-08 23:00:00 12.9 20 Oeste 35 Oeste 0 -- -- 71
2021-02-08 22:00:00 12.6 22 Oeste 41 Oeste 0 -- -- 76
2021-02-08 21:00:00 12.8 22 Oeste 39 Oeste 0 -- -- 71
2021-02-08 20:00:00 13.3 22 Oeste 36 Oeste 0 -- -- 69
2021-02-08 19:00:00 13.5 20 Oeste 46 Oeste 0 -- -- 74
2021-02-08 18:00:00 13.6 26 Oeste 62 Oeste 0 -- -- 68
2021-02-08 17:00:00 14.1 36 Oeste 57 Oeste 0 -- -- 71
2021-02-08 16:00:00 14.2 32 Oeste 53 Sudoeste 0 -- -- 76
2021-02-08 15:00:00 13.7 26 Oeste 44 Oeste 0.1 -- -- 90
2021-02-08 14:00:00 12.8 15 Oeste 39 Oeste 1.4 -- -- 95
2021-02-08 13:00:00 13.1 23 Oeste 51 Oeste 0.5 -- -- 85
2021-02-08 12:00:00 15 22 Sudoeste 45 Oeste 0 -- -- 68
2021-02-08 11:00:00 15.5 21 Oeste 40 Oeste 0 -- -- 65
2021-02-08 10:00:00 13.5 18 Oeste 44 Oeste 0 -- -- 71
2021-02-08 09:00:00 12.8 21 Oeste 45 Oeste 0 -- -- 72
2021-02-08 08:00:00 11.7 24 Oeste 41 Oeste 0 -- -- 79
2021-02-08 07:00:00 11.5 25 Oeste 40 Oeste 0 -- -- 81
2021-02-08 06:00:00 11.7 18 Oeste 32 Oeste 0 -- -- 80
2021-02-08 05:00:00 11.8 13 Oeste 32 Oeste 0 -- -- 81
2021-02-08 04:00:00 11 13 Oeste 22 Oeste 0 -- -- 86
2021-02-08 03:00:00 8.9 5 Oeste 10 Sudoeste 0 -- -- 94
2021-02-08 02:00:00 8.6 6 Sudoeste 11 Sudoeste 0 -- -- 95
2021-02-08 01:00:00 5.9 0 Calma 5 Noroeste 0 -- -- 87
2021-02-08 00:00:00 5.9 0 Calma 4 Nordeste 0 -- -- 82
2021-02-07 23:00:00 5.7 0 Calma 6 Norte 0 -- -- 81
2021-02-07 22:00:00 5.8 0 Calma 3 Sudoeste 0 -- -- 79
2021-02-07 21:00:00 7.1 0 Calma 4 Noroeste 0 -- -- 74
2021-02-07 20:00:00 8.7 3 Oeste 6 Oeste 0 -- -- 65
2021-02-07 19:00:00 9.4 2 Oeste 16 Oeste 0 -- -- 62
2021-02-07 18:00:00 11.7 12 Oeste 21 Oeste 0 -- -- 52
2021-02-07 17:00:00 13 9 Noroeste 23 Norte 0 -- -- 53
2021-02-07 16:00:00 14.6 12 Noroeste 28 Oeste 0 -- -- 49
2021-02-07 15:00:00 13.5 9 Noroeste 19 Noroeste 0 -- -- 54
2021-02-07 14:00:00 13.4 12 Noroeste 23 Noroeste 0 -- -- 49
2021-02-07 13:00:00 13.3 12 Noroeste 26 Noroeste 0 -- -- 48
2021-02-07 12:00:00 13.2 13 Noroeste 29 Oeste 0 -- -- 61
2021-02-07 11:00:00 13.5 11 Noroeste 23 Noroeste 0 -- -- 65
2021-02-07 10:00:00 12.1 9 Noroeste 22 Noroeste 0 -- -- 76
2021-02-07 09:00:00 12 10 Noroeste 26 Oeste 0 -- -- 77
2021-02-07 08:00:00 10.4 12 Oeste 22 Oeste 0 -- -- 87
2021-02-07 07:00:00 9.9 0 Calma 17 Oeste 0 -- -- 97
2021-02-07 06:00:00 11.3 13 Oeste 20 Oeste 0 -- -- 98
2021-02-07 05:00:00 12.2 7 Sudoeste 15 Oeste 0 -- -- 99
2021-02-07 04:00:00 11.9 3 Sur 9 Sudoeste 0 -- -- 99
2021-02-07 03:00:00 11.5 4 Sudoeste 12 Sudoeste 0 -- -- 97
2021-02-07 02:00:00 11.9 7 Sudoeste 13 Sudoeste 0 -- -- 97
2021-02-07 01:00:00 11.8 5 Oeste 14 Sudoeste 0 -- -- 95
2021-02-07 00:00:00 12.3 9 Oeste 21 Sudoeste 0 -- -- 95
2021-02-06 23:00:00 12.6 10 Sudoeste 21 Oeste 0 -- -- 96
2021-02-06 22:00:00 12.2 3 Sudoeste 18 Sudoeste 0 -- -- 97
2021-02-06 21:00:00 12.9 11 Sudoeste 29 Sudoeste 0 -- -- 93
2021-02-06 20:00:00 13.1 14 Oeste 26 Oeste 0 -- -- 91
2021-02-06 19:00:00 13.5 14 Oeste 22 Oeste 0 -- -- 88
2021-02-06 18:00:00 14.8 11 Oeste 24 Oeste 0 -- -- 81
2021-02-06 17:00:00 16 13 Oeste 26 Oeste 0 -- -- 76
2021-02-06 16:00:00 16.6 12 Sudoeste 30 Oeste 0 -- -- 72
2021-02-06 15:00:00 16.7 20 Oeste 34 Oeste 0 -- -- 73
2021-02-06 14:00:00 17.3 19 Oeste 31 Oeste 0 -- -- 71
2021-02-06 13:00:00 17.2 17 Sudoeste 29 Sudoeste 0 -- -- 73
2021-02-06 12:00:00 17.2 17 Sudoeste 29 Sudoeste 0 -- -- 79
2021-02-06 11:00:00 16.3 14 Sudoeste 26 Sudoeste 0 -- -- 86
2021-02-06 10:00:00 15.5 15 Sudoeste 27 Sudoeste 0 -- -- 92
2021-02-06 09:00:00 15 14 Sudoeste 24 Sudoeste 0 -- -- 93
2021-02-06 08:00:00 14.9 12 Sudoeste 22 Sudoeste 0 -- -- 91
2021-02-06 07:00:00 15.7 11 Sudoeste 19 Sur 0 -- -- 78
2021-02-06 06:00:00 17 11 Sudoeste 30 Sudoeste 0 -- -- 63
2021-02-06 05:00:00 18.7 18 Sudoeste 34 Sudoeste 0 -- -- 45
2021-02-06 04:00:00 19.8 11 Sur 26 Sudoeste 0 -- -- 36
2021-02-06 03:00:00 20.5 13 Sur 35 Sudoeste 0 -- -- 34
2021-02-06 02:00:00 21 16 Sur 45 Sudoeste 0 -- -- 32
2021-02-06 01:00:00 20.2 10 Sur 29 Sur 0 -- -- 41
2021-02-06 00:00:00 18.3 7 Sur 19 Sudeste 0 -- -- 46
2021-02-05 23:00:00 14.5 4 Noroeste 12 Noroeste 0 -- -- 73
2021-02-05 22:00:00 14.4 6 Noroeste 10 Norte 0 -- -- 72
2021-02-05 21:00:00 14.5 5 Norte 8 Norte 0 -- -- 73
2021-02-05 20:00:00 15.1 0 Calma 5 Sudeste 0 -- -- 65
2021-02-05 19:00:00 16.5 2 Este 10 Sudeste 0 -- -- 57
2021-02-05 18:00:00 18.1 8 Sudeste 17 Sudeste 0 -- -- 51
2021-02-05 17:00:00 19.7 9 Sudeste 17 Sudeste 0 -- -- 42
2021-02-05 16:00:00 21.2 11 Sur 23 Sudoeste 0 -- -- 34
2021-02-05 15:00:00 23.1 9 Sur 24 Sur 0 -- -- 32
2021-02-05 14:00:00 23.4 13 Sudoeste 27 Sudoeste 0 -- -- 29
2021-02-05 13:00:00 22.4 12 Sur 25 Sudoeste 0 -- -- 34
2021-02-05 12:00:00 21.3 10 Sur 21 Sudoeste 0 -- -- 45
2021-02-05 11:00:00 19.2 6 Sur 11 Sudeste 0 -- -- 59
2021-02-05 10:00:00 -- 0 Calma 0 Calma 0 -- -- 80
2021-02-05 09:00:00 11.2 0 Calma 3 Noroeste 0 -- -- 91
2021-02-05 08:00:00 9.9 0 Calma 5 Norte 0 -- -- 93
2021-02-05 07:00:00 9.7 2 Oeste 8 Noroeste 0 -- -- 93
2021-02-05 06:00:00 9.9 0 Calma 8 Noroeste 0 -- -- 94
2021-02-05 05:00:00 9.9 2 Norte 12 Noroeste 0 -- -- 93
2021-02-05 04:00:00 10 4 Norte 13 Noroeste 0 -- -- 93
2021-02-05 03:00:00 9.7 4 Oeste 10 Noroeste 0 -- -- 92
2021-02-05 02:00:00 8.9 3 Norte 6 Norte 0 -- -- 95
2021-02-05 01:00:00 9.8 0 Calma 7 Noroeste 0 -- -- 94
2021-02-05 00:00:00 10.4 3 Norte 7 Noroeste 0 -- -- 95
2021-02-04 23:00:00 9.8 0 Calma 5 Norte 0 -- -- 92
2021-02-04 22:00:00 10 0 Calma 4 Sudoeste 0 -- -- 89
2021-02-04 21:00:00 9.3 0 Calma 5 Norte 0 -- -- 86
2021-02-04 20:00:00 11.6 0 Calma 4 Oeste 0 -- -- 79
2021-02-04 19:00:00 13.6 0 Calma 9 Sudoeste 0 -- -- 73
2021-02-04 18:00:00 16 5 Sudoeste 15 Sudoeste 0 -- -- 61
2021-02-04 17:00:00 18.5 8 Sudoeste 15 Sudoeste 0 -- -- 53
2021-02-04 16:00:00 19 5 Sur 13 Sudeste 0 -- -- 62
2021-02-04 15:00:00 19.7 8 Sur 14 Sudeste 0 -- -- 61
2021-02-04 14:00:00 19 2 Sur 13 Sur 0 -- -- 68
2021-02-04 13:00:00 16 5 Sur 13 Sudoeste 0 -- -- 76
2021-02-04 12:00:00 13.5 4 Sur 10 Sur 0 -- -- 88
2021-02-04 11:00:00 12.1 0 Calma 6 Oeste 0 -- -- 95
2021-02-04 10:00:00 11.3 3 Sudoeste 11 Sudoeste 0 -- -- 99
2021-02-04 09:00:00 10.8 5 Sudoeste 10 Sudoeste 0 -- -- 99
2021-02-04 08:00:00 10.6 0 Calma 6 Noroeste 0 -- -- 99
2021-02-04 07:00:00 11.1 0 Calma 7 Sudoeste 0 -- -- 99
2021-02-04 06:00:00 11.4 3 Oeste 9 Noroeste 0 -- -- 99
2021-02-04 05:00:00 11.5 2 Sur 9 Oeste 0 -- -- 99
2021-02-04 04:00:00 11.6 4 Sur 9 Sur 0 -- -- 99
2021-02-04 03:00:00 11.9 0 Calma 6 Sudoeste 0 -- -- 99
2021-02-04 02:00:00 11.7 0 Calma 11 Sudoeste 0 -- -- 99
2021-02-04 01:00:00 10.2 2 Sur 9 Sur 0 -- -- 99
2021-02-04 00:00:00 10.2 0 Calma 7 Oeste 0 -- -- 99
2021-02-03 23:00:00 10.1 0 Calma 6 Oeste 0 -- -- 96
2021-02-03 22:00:00 11.8 0 Calma 14 Sudoeste 0 -- -- 96
2021-02-03 21:00:00 12.2 11 Sudoeste 17 Sudoeste 0 -- -- 98
2021-02-03 20:00:00 12.6 10 Sudoeste 19 Sudoeste 0 -- -- 95
2021-02-03 19:00:00 13.2 11 Sudoeste 18 Sudoeste 0 -- -- 93
2021-02-03 18:00:00 14.7 8 Sudoeste 18 Sudoeste 0 -- -- 74
2021-02-03 17:00:00 16.7 8 Oeste 22 Oeste 0 -- -- 62
2021-02-03 16:00:00 18.4 13 Oeste 24 Oeste 0 -- -- 55
2021-02-03 15:00:00 18.2 12 Oeste -- -- -- -- -- 57
2021-02-03 14:00:00 -- -- -- -- -- -- -- -- --
2021-02-03 13:00:00 -- -- -- -- -- -- -- -- --
2021-02-03 12:00:00 17 16 Oeste 32 Oeste 0 -- -- 67
2021-02-03 11:00:00 15.5 10 Oeste 21 Sudoeste 0 -- -- 77
2021-02-03 10:00:00 14.2 10 Sudoeste 19 Sudoeste 0 -- -- 89
2021-02-03 09:00:00 13.1 9 Sudoeste 20 Sudoeste 0 -- -- 96
2021-02-03 08:00:00 12.7 11 Sudoeste 20 Sur 0 -- -- 97
2021-02-03 07:00:00 12.6 7 Sudoeste 21 Sur 0 -- -- 98
2021-02-03 06:00:00 12.5 8 Sudoeste 18 Oeste 0 -- -- 98
2021-02-03 05:00:00 12.6 9 Sudoeste 21 Sudoeste 0 -- -- 97
2021-02-03 04:00:00 12.8 9 Sudoeste 23 Oeste 0 -- -- 95
2021-02-03 03:00:00 13 9 Sudoeste 21 Sudoeste 0 -- -- 97
2021-02-03 02:00:00 12.4 7 Sudoeste 17 Sudoeste 0 -- -- 99
2021-02-03 01:00:00 12.8 11 Sudoeste 18 Sudoeste 0 -- -- --
2021-02-03 00:00:00 11.1 0 Calma 6 Oeste 0 -- -- 95
2021-02-02 23:00:00 12 3 Oeste 11 Sudoeste 0 -- -- 94
2021-02-02 22:00:00 12.7 5 Sudoeste 18 Sudoeste 0 -- -- 98
2021-02-02 21:00:00 12.6 8 Sudoeste 14 Sudoeste 0 -- -- 93
2021-02-02 20:00:00 13 4 Sudoeste 14 Sudoeste 0 -- -- 88
2021-02-02 19:00:00 14.6 3 Sur 11 Sudoeste 0 -- -- 82
2021-02-02 18:00:00 16.9 5 Sudoeste 16 Sur 0 -- -- 65
2021-02-02 17:00:00 19 7 Sudoeste 17 Oeste 0 -- -- 63
2021-02-02 16:00:00 21 9 Sudoeste 17 Sudoeste 0 -- -- 56
2021-02-02 15:00:00 20.2 11 Oeste 22 Oeste 0 -- -- 61
2021-02-02 14:00:00 20 13 Oeste 23 Sudoeste 0 -- -- 63
2021-02-02 13:00:00 19.3 13 Sudoeste 23 Sudoeste 0 -- -- 65
2021-02-02 12:00:00 20.1 9 Sudoeste 18 Sudoeste 0 -- -- 62
2021-02-02 11:00:00 17.7 6 Sudoeste 19 Sudeste 0 -- -- 69
2021-02-02 10:00:00 15.6 2 Sudeste 12 Sudeste 0 -- -- 74
2021-02-02 09:00:00 12 4 Sudeste 10 Sudeste 0 -- -- 86
2021-02-02 08:00:00 9.4 0 Calma 12 Sudeste 0 -- -- 90
2021-02-02 07:00:00 10.3 0 Calma 12 Sudeste 0 -- -- 88
2021-02-02 06:00:00 11.8 0 Calma 12 Noroeste 0 -- -- 76
2021-02-02 05:00:00 10.7 4 Oeste 7 Oeste 0 -- -- 83
2021-02-02 04:00:00 12.3 0 Calma 14 Oeste 0 -- -- 79
2021-02-02 03:00:00 13.2 8 Oeste 11 Oeste 0 -- -- 76
2021-02-02 02:00:00 13.5 3 Sudeste 14 Noroeste 0 -- -- 63
2021-02-02 01:00:00 17.3 8 Noroeste 27 Noroeste 0 -- -- 45
2021-02-02 00:00:00 17.1 12 Noroeste 18 Noroeste 0 -- -- 46
2021-02-01 23:00:00 17.6 10 Oeste 27 Oeste 0 -- -- 48
2021-02-01 22:00:00 18 12 Noroeste 39 Noroeste 0 -- -- 45
2021-02-01 21:00:00 17.5 8 Noroeste 39 Sudoeste 0 -- -- 46
2021-02-01 20:00:00 16.6 11 Sudoeste 24 Noroeste 0 -- -- 47
2021-02-01 19:00:00 17.2 8 Sudoeste 22 Sudoeste 0 -- -- 45
2021-02-01 18:00:00 17.6 9 Oeste 47 Noroeste 0 -- -- 41
2021-02-01 17:00:00 18.5 27 Noroeste 54 Noroeste 0 -- -- 37
2021-02-01 16:00:00 17.9 24 Noroeste 48 Noroeste 0 -- -- 40
2021-02-01 15:00:00 18.9 24 Noroeste 49 Noroeste 0 -- -- 37
2021-02-01 14:00:00 18.7 22 Noroeste 54 Noroeste 0 -- -- 38
2021-02-01 13:00:00 18.5 25 Noroeste 51 Noroeste 0 -- -- 39
2021-02-01 12:00:00 18.8 19 Noroeste 47 Oeste 0 -- -- 39
2021-02-01 11:00:00 18.7 18 Noroeste 50 Norte 0 -- -- 39
2021-02-01 10:00:00 17.5 26 Noroeste 49 Noroeste 0 -- -- 42
2021-02-01 09:00:00 16.6 14 Noroeste 35 Noroeste 0 -- -- 49
2021-02-01 08:00:00 15.2 12 Oeste 26 Oeste 0 -- -- 60
2021-02-01 07:00:00 16.1 8 Sudoeste 28 Oeste 0 -- -- 52
2021-02-01 06:00:00 16.3 12 Oeste 45 Oeste 0 -- -- 52
2021-02-01 05:00:00 16.8 15 Noroeste 31 Oeste 0 -- -- 51
2021-02-01 04:00:00 16.7 15 Oeste 37 Oeste 0 -- -- 55
2021-02-01 03:00:00 16.3 20 Oeste 36 Oeste 0 -- -- 64
2021-02-01 02:00:00 13.6 17 Oeste 26 Sudoeste 0 -- -- 82
2021-02-01 01:00:00 13.7 13 Oeste 24 Oeste 0 -- -- 85
2021-02-01 00:00:00 13.6 16 Oeste 32 Oeste 0 -- -- 85
2021-01-31 23:00:00 14.2 23 Oeste 40 Oeste 0 -- -- 82
2021-01-31 22:00:00 13.6 23 Oeste 36 Oeste 0 -- -- 83
2021-01-31 21:00:00 13.1 0 Calma 11 Sur 0 -- -- 80
2021-01-31 20:00:00 13.6 7 Sudoeste 22 Oeste 0 -- -- 81
2021-01-31 19:00:00 13.5 14 Oeste 27 Oeste 0 -- -- 77
2021-01-31 18:00:00 14.9 13 Oeste 26 Oeste 0 -- -- 60
2021-01-31 17:00:00 14.5 16 Oeste 38 Oeste 0 -- -- 67
2021-01-31 16:00:00 16.3 21 Oeste 34 Oeste 0 -- -- 56
2021-01-31 15:00:00 17.2 11 Oeste 36 Oeste 0 -- -- 50
2021-01-31 14:00:00 16.8 18 Noroeste 45 Noroeste 0 -- -- 44
2021-01-31 13:00:00 16.8 23 Noroeste 54 Noroeste 0 -- -- 40
2021-01-31 12:00:00 16.4 23 Noroeste 48 Noroeste 0 -- -- 44
2021-01-31 11:00:00 15.9 22 Noroeste 50 Oeste 0 -- -- 46
2021-01-31 10:00:00 15.2 25 Noroeste 42 Noroeste 0 -- -- 45
2021-01-31 09:00:00 14 12 Noroeste 27 Norte 0 -- -- 47
2021-01-31 08:00:00 12.8 7 Sudoeste 24 Oeste 0 -- -- 51
2021-01-31 07:00:00 12.3 8 Oeste 24 Noroeste 0 -- -- 58
2021-01-31 06:00:00 12.8 9 Oeste 29 Oeste 0 -- -- 58
2021-01-31 05:00:00 12.4 15 Oeste 25 Oeste 0 -- -- 64
2021-01-31 04:00:00 11.2 11 Oeste 18 Oeste 0 -- -- 74
2021-01-31 03:00:00 12.1 10 Oeste 27 Oeste 0 -- -- 63
2021-01-31 02:00:00 12.4 13 Oeste 24 Oeste 0 -- -- 62
2021-01-31 01:00:00 12.8 9 Noroeste 23 Oeste 0 -- -- 63
2021-01-31 00:00:00 13.3 13 Oeste 21 Noroeste 0 -- -- 62